Time;durP1;ratioP1;P1;durP2;ratioP2;P2;SDS_P1;SDS_P2;PMS_P1;PMS_P2;Temp;Humidity;BMP_temperature;BMP_pressure;BME280_temperature;BME280_humidity;BME280_pressure;Samples;Min_cycle;Max_cycle;Signal;HPM_P1;HPM_P2
2023/03/28 00:00:24;;;;;;;36.83;19.60;;;-3.70;99.90;;;;;;5075321;28;20021;-76
2023/03/28 00:02:49;;;;;;;38.22;17.95;;;-3.70;99.90;;;;;;5076397;28;20079;-79
2023/03/28 00:05:16;;;;;;;34.13;17.30;;;-3.70;99.90;;;;;;5076337;28;20108;-76
2023/03/28 00:07:42;;;;;;;39.33;18.90;;;-3.80;99.90;;;;;;5075158;28;20534;-79
2023/03/28 00:10:09;;;;;;;41.45;22.77;;;-3.80;99.90;;;;;;5075159;28;20481;-79
2023/03/28 00:12:35;;;;;;;42.90;20.60;;;-3.90;99.90;;;;;;5074939;28;20029;-76
2023/03/28 00:15:03;;;;;;;31.55;15.38;;;-3.90;99.90;;;;;;5074972;28;20499;-76
2023/03/28 00:17:29;;;;;;;28.60;13.52;;;-4.00;99.90;;;;;;5074992;28;20031;-76
2023/03/28 00:19:55;;;;;;;27.77;13.73;;;-4.10;99.90;;;;;;5076245;28;20047;-79
2023/03/28 00:22:21;;;;;;;21.08;10.93;;;-4.20;99.90;;;;;;5076028;28;20052;-77
2023/03/28 00:24:47;;;;;;;19.23;11.98;;;-4.30;99.90;;;;;;5074955;28;20107;-76
2023/03/28 00:27:14;;;;;;;22.45;12.18;;;-4.30;99.90;;;;;;5075909;28;20489;-76
2023/03/28 00:29:40;;;;;;;20.98;11.75;;;-4.40;99.90;;;;;;5076160;28;20071;-80
2023/03/28 00:32:05;;;;;;;25.77;12.95;;;-4.40;99.90;;;;;;5074631;28;20476;-80
2023/03/28 00:34:31;;;;;;;26.55;13.27;;;-4.40;99.90;;;;;;5074669;28;20021;-76
2023/03/28 00:36:57;;;;;;;28.92;13.48;;;-4.40;99.90;;;;;;5075944;28;20385;-76
2023/03/28 00:39:26;;;;;;;24.45;13.38;;;-4.40;99.90;;;;;;5074728;28;20021;-79
2023/03/28 00:41:52;;;;;;;24.35;13.13;;;-4.40;99.90;;;;;;5074483;28;20207;-79
2023/03/28 00:44:52;;;;;;;24.90;12.50;;;-4.50;99.90;;;;;;5075812;28;20534;-77
2023/03/28 00:47:26;;;;;;;19.83;11.77;;;-4.50;99.90;;;;;;5075927;28;20074;-76
2023/03/28 00:50:18;;;;;;;23.58;11.52;;;-4.40;99.90;;;;;;5074449;28;20081;-74
2023/03/28 00:53:01;;;;;;;20.27;11.00;;;-4.40;99.90;;;;;;5067909;28;20037;-74
2023/03/28 00:55:45;;;;;;;15.70;10.18;;;-4.50;99.90;;;;;;5075498;28;20017;-76
2023/03/28 00:58:16;;;;;;;17.38;10.80;;;-4.50;99.90;;;;;;5074315;28;20048;-77
2023/03/28 01:00:45;;;;;;;19.88;10.95;;;-4.50;99.90;;;;;;5075647;28;20103;-78
2023/03/28 01:03:14;;;;;;;18.85;9.95;;;-4.50;99.90;;;;;;5075466;28;20028;-80
2023/03/28 01:05:41;;;;;;;31.75;13.30;;;-4.50;99.90;;;;;;5075368;28;20024;-80
2023/03/28 01:08:19;;;;;;;47.50;18.63;;;-4.40;99.90;;;;;;5074450;28;20111;-81
2023/03/28 01:10:45;;;;;;;38.45;16.40;;;-4.40;99.90;;;;;;5073885;28;20107;-80
2023/03/28 01:13:14;;;;;;;30.27;16.10;;;-4.50;99.90;;;;;;5073698;28;20028;-76
2023/03/28 01:15:41;;;;;;;32.28;15.52;;;-4.50;99.90;;;;;;5075057;28;20032;-78
2023/03/28 01:18:10;;;;;;;27.52;12.90;;;-4.50;99.90;;;;;;5075194;28;20377;-77
2023/03/28 01:21:06;;;;;;;24.98;12.75;;;-4.50;99.90;;;;;;5073736;28;20473;-77
2023/03/28 01:23:53;;;;;;;38.65;13.13;;;-4.50;99.90;;;;;;5075094;28;20420;-80
2023/03/28 01:26:50;;;;;;;24.27;11.40;;;-4.50;99.90;;;;;;5073584;28;20469;-80
2023/03/28 01:29:36;;;;;;;22.20;12.82;;;-4.60;99.90;;;;;;5068382;28;20033;-77
2023/03/28 01:32:18;;;;;;;18.35;11.55;;;-4.60;99.90;;;;;;5074893;28;20033;-80
2023/03/28 01:35:13;;;;;;;39.13;17.65;;;-4.60;99.90;;;;;;5073613;28;20029;-77
2023/03/28 01:37:53;;;;;;;28.00;13.75;;;-4.60;99.90;;;;;;5073430;28;20119;-80
2023/03/28 01:40:26;;;;;;;23.17;13.60;;;-4.70;99.90;;;;;;5073863;28;20025;-76
2023/03/28 01:43:12;;;;;;;19.67;12.90;;;-4.70;99.90;;;;;;5073354;28;20033;-79
2023/03/28 01:46:04;;;;;;;18.70;10.57;;;-4.70;99.90;;;;;;5067708;28;20044;-76
2023/03/28 01:48:55;;;;;;;19.85;11.70;;;-4.80;99.90;;;;;;5074691;28;20112;-76
2023/03/28 01:51:33;;;;;;;18.48;10.00;;;-4.80;99.90;;;;;;5074542;28;20058;-76
2023/03/28 01:53:58;;;;;;;20.25;10.73;;;-4.80;99.90;;;;;;5073294;28;20028;-79
2023/03/28 01:57:11;;;;;;;18.33;10.73;;;-4.80;99.90;;;;;;5074575;28;20422;-76
2023/03/28 01:59:57;;;;;;;21.35;10.35;;;-4.80;99.90;;;;;;5015778;28;20030;-79
2023/03/28 02:02:37;;;;;;;16.50;10.40;;;-4.90;99.90;;;;;;5015668;28;20033;-76
2023/03/28 02:05:07;;;;;;;15.90;10.45;;;-4.90;99.90;;;;;;5055315;28;20107;-76
2023/03/28 02:07:34;;;;;;;17.15;9.15;;;-5.00;99.90;;;;;;5054133;28;20048;-76
2023/03/28 02:10:02;;;;;;;20.17;10.55;;;-5.00;99.90;;;;;;5053098;28;20028;-76
2023/03/28 02:12:33;;;;;;;17.75;9.18;;;-4.90;99.90;;;;;;5054105;28;20032;-76
2023/03/28 02:15:03;;;;;;;19.98;10.07;;;-4.90;99.90;;;;;;5054140;28;20056;-76
2023/03/28 02:17:33;;;;;;;14.77;10.45;;;-4.90;99.90;;;;;;5052745;28;20025;-79
2023/03/28 02:20:13;;;;;;;17.08;9.57;;;-4.90;99.90;;;;;;5052936;28;20049;-76
2023/03/28 02:23:01;;;;;;;21.15;11.50;;;-4.90;99.90;;;;;;5051901;28;20045;-76
2023/03/28 02:25:28;;;;;;;14.85;9.88;;;-4.90;99.90;;;;;;5052502;28;20378;-79
2023/03/28 02:27:58;;;;;;;15.98;9.45;;;-4.90;99.90;;;;;;5052539;28;20526;-76
2023/03/28 02:30:24;;;;;;;18.63;10.10;;;-4.90;99.90;;;;;;5053851;28;20099;-79
2023/03/28 02:32:50;;;;;;;18.00;9.55;;;-4.90;99.90;;;;;;5052331;28;20112;-79
2023/03/28 02:35:29;;;;;;;18.65;9.85;;;-4.80;99.90;;;;;;5052496;28;20045;-79
2023/03/28 02:38:06;;;;;;;20.05;10.30;;;-4.80;99.90;;;;;;5052441;28;20116;-76
2023/03/28 02:40:39;;;;;;;18.15;10.30;;;-4.70;99.90;;;;;;5052327;28;20028;-79
2023/03/28 02:43:32;;;;;;;20.88;10.15;;;-4.60;99.90;;;;;;5052385;28;20037;-80
2023/03/28 02:46:04;;;;;;;;;;;-4.50;99.90;;;;;;5052798;28;20060;-75
2023/03/28 02:48:45;;;;;;;14.30;9.73;;;-4.40;99.90;;;;;;5052279;28;20435;-79
2023/03/28 02:51:33;;;;;;;18.73;10.95;;;-4.30;99.90;;;;;;5053503;28;20024;-80
2023/03/28 02:54:36;;;;;;;29.23;14.25;;;-4.30;99.90;;;;;;5051770;28;20112;-85
2023/03/28 02:57:05;;;;;;;43.83;21.48;;;-4.00;99.90;;;;;;5052879;28;20029;-85
2023/03/28 02:59:43;;;;;;;54.58;25.38;;;-3.80;99.90;;;;;;5051906;28;20029;-84
2023/03/28 03:02:15;;;;;;;73.22;34.05;;;-3.70;99.90;;;;;;5053290;28;20123;-81
2023/03/28 03:04:40;;;;;;;55.95;25.17;;;-3.50;99.90;;;;;;5052160;28;20017;-80
2023/03/28 03:07:07;;;;;;;52.58;25.23;;;-3.40;99.90;;;;;;5053196;28;20066;-77
2023/03/28 03:09:33;;;;;;;88.75;38.47;;;-3.30;99.90;;;;;;5053168;28;20032;-77
2023/03/28 03:11:59;;;;;;;53.08;25.15;;;-3.20;99.90;;;;;;5051969;28;20386;-78
2023/03/28 03:14:25;;;;;;;31.98;15.38;;;-3.10;99.90;;;;;;5051989;28;20485;-77
2023/03/28 03:16:51;;;;;;;52.03;23.40;;;-3.00;99.90;;;;;;5053310;28;20482;-76
2023/03/28 03:19:17;;;;;;;47.95;23.00;;;-3.00;99.90;;;;;;5053147;28;20017;-81
2023/03/28 03:21:43;;;;;;;35.50;18.00;;;-2.80;99.90;;;;;;5051516;28;20064;-81
2023/03/28 03:24:08;;;;;;;25.25;14.57;;;-2.80;99.90;;;;;;5051766;28;20025;-77
2023/03/28 03:26:34;;;;;;;41.50;21.48;;;-2.70;99.90;;;;;;5051671;28;20033;-77
2023/03/28 03:29:01;;;;;;;25.27;14.10;;;-2.70;99.90;;;;;;5052144;28;20437;-78
2023/03/28 03:31:27;;;;;;;73.28;31.67;;;-2.60;99.90;;;;;;5051760;28;20021;-81
2023/03/28 03:33:53;;;;;;;40.88;19.42;;;-2.60;99.90;;;;;;5053940;28;20024;-77
2023/03/28 03:36:19;;;;;;;28.75;14.98;;;-2.50;99.90;;;;;;5057206;28;20493;-81
2023/03/28 03:38:46;;;;;;;36.47;16.85;;;-2.40;99.90;;;;;;5055713;28;20017;-77
2023/03/28 03:41:12;;;;;;;41.65;20.40;;;-2.40;99.90;;;;;;5056803;28;20029;-77
2023/03/28 03:43:37;;;;;;;32.47;17.02;;;-2.30;99.90;;;;;;5055898;28;20035;-81
2023/03/28 03:46:03;;;;;;;39.97;19.77;;;-2.30;99.90;;;;;;5056872;28;20033;-77
2023/03/28 03:48:29;;;;;;;35.97;18.15;;;-2.20;99.90;;;;;;5056862;28;20024;-77
2023/03/28 03:50:55;;;;;;;35.35;17.40;;;-2.20;99.90;;;;;;5056766;28;20147;-78
2023/03/28 03:53:21;;;;;;;40.88;21.50;;;-2.10;99.90;;;;;;5057014;28;20403;-81
2023/03/28 03:55:46;;;;;;;34.55;16.50;;;-2.10;99.90;;;;;;5055329;28;20064;-81
2023/03/28 03:58:12;;;;;;;38.53;20.27;;;-2.00;99.90;;;;;;5055632;28;20339;-79
2023/03/28 04:00:38;;;;;;;27.85;16.00;;;-2.00;99.90;;;;;;5055303;28;20250;-78
2023/03/28 04:03:04;;;;;;;26.40;14.80;;;-2.00;99.90;;;;;;5056504;28;20037;-77
2023/03/28 04:05:29;;;;;;;27.90;15.13;;;-1.90;99.90;;;;;;5056565;28;20569;-75
2023/03/28 04:07:58;;;;;;;32.25;17.10;;;-1.90;99.90;;;;;;5056500;28;20029;-76
2023/03/28 04:10:23;;;;;;;27.92;16.15;;;-1.90;99.90;;;;;;5056426;28;20490;-75
2023/03/28 04:12:49;;;;;;;44.33;22.42;;;-1.80;99.90;;;;;;5055059;28;20025;-77
2023/03/28 04:15:15;;;;;;;25.20;15.68;;;-1.80;99.90;;;;;;5056486;28;20029;-77
2023/03/28 04:17:40;;;;;;;33.58;16.60;;;-1.80;99.90;;;;;;5056366;28;20025;-77
2023/03/28 04:20:13;;;;;;;30.90;15.40;;;-1.80;99.90;;;;;;5054879;28;20459;-78
2023/03/28 04:22:39;;;;;;;23.70;13.45;;;-1.80;99.90;;;;;;5054735;28;20053;-76
2023/03/28 04:25:07;;;;;;;27.48;14.93;;;-1.80;99.90;;;;;;5054943;28;20029;-78
2023/03/28 04:27:32;;;;;;;35.13;17.00;;;-1.80;99.90;;;;;;5056003;28;20378;-79
2023/03/28 04:30:00;;;;;;;26.85;14.60;;;-1.80;99.90;;;;;;5054721;28;20055;-77
2023/03/28 04:32:26;;;;;;;19.25;11.05;;;-1.80;99.90;;;;;;5055799;28;20075;-79
2023/03/28 04:34:51;;;;;;;20.83;10.50;;;-1.80;99.90;;;;;;5055928;28;20033;-76
2023/03/28 04:37:18;;;;;;;28.13;15.27;;;-1.70;99.90;;;;;;5054514;28;20017;-79
2023/03/28 04:39:46;;;;;;;19.75;11.05;;;-1.70;99.90;;;;;;5054730;28;20057;-79
2023/03/28 04:42:15;;;;;;;15.63;9.65;;;-1.70;99.90;;;;;;5054469;28;20083;-76
2023/03/28 04:44:41;;;;;;;16.23;9.30;;;-1.70;99.90;;;;;;5053964;28;20028;-80
2023/03/28 04:47:10;;;;;;;25.48;11.77;;;-1.70;99.90;;;;;;5055597;28;20036;-77
2023/03/28 04:49:37;;;;;;;21.70;12.48;;;-1.60;99.90;;;;;;5054273;28;20020;-76
2023/03/28 04:52:03;;;;;;;16.73;9.75;;;-1.60;99.90;;;;;;5060143;28;20031;-76
2023/03/28 04:54:29;;;;;;;11.70;8.05;;;-1.60;99.90;;;;;;5056811;28;20028;-79
2023/03/28 04:56:54;;;;;;;18.80;10.52;;;-1.60;99.90;;;;;;5054203;28;20021;-77
2023/03/28 04:59:20;;;;;;;16.13;10.27;;;-1.60;99.90;;;;;;5055391;28;20025;-77
2023/03/28 05:01:48;;;;;;;14.18;8.25;;;-1.50;99.90;;;;;;5055406;28;20100;-80
2023/03/28 05:04:16;;;;;;;23.52;12.35;;;-1.50;99.90;;;;;;5054451;28;20093;-81
2023/03/28 05:06:45;;;;;;;12.80;7.95;;;-1.50;99.90;;;;;;5054014;28;20021;-81
2023/03/28 05:09:13;;;;;;;17.83;10.57;;;-1.50;99.90;;;;;;5054018;28;20524;-81
2023/03/28 05:11:39;;;;;;;17.92;9.20;;;-1.50;99.90;;;;;;5053948;28;20025;-77
2023/03/28 05:14:05;;;;;;;16.73;9.10;;;-1.50;99.90;;;;;;5055120;28;20051;-77
2023/03/28 05:16:30;;;;;;;16.13;8.60;;;-1.50;99.90;;;;;;5055265;28;20035;-80
2023/03/28 05:18:57;;;;;;;15.85;9.50;;;-1.50;99.90;;;;;;5073797;28;20032;-80
2023/03/28 05:21:23;;;;;;;16.55;10.18;;;-1.50;99.90;;;;;;5073944;28;20043;-79
2023/03/28 05:23:49;;;;;;;44.63;17.95;;;-1.60;99.90;;;;;;5073692;28;20506;-76
2023/03/28 05:26:15;;;;;;;38.83;19.05;;;-1.50;99.90;;;;;;5074719;28;20035;-78
2023/03/28 05:28:41;;;;;;;125.35;50.83;;;-1.50;99.90;;;;;;5074877;28;20017;-77
2023/03/28 05:31:07;;;;;;;100.75;39.75;;;-1.50;99.90;;;;;;5073638;28;20063;-75
2023/03/28 05:33:34;;;;;;;27.33;14.55;;;-1.50;99.90;;;;;;5063667;28;20428;-77
2023/03/28 05:36:01;;;;;;;37.00;17.83;;;-1.40;99.90;;;;;;5061892;28;20020;-75
2023/03/28 05:38:29;;;;;;;19.33;10.50;;;-1.40;99.90;;;;;;5063819;28;20091;-75
2023/03/28 05:40:56;;;;;;;28.35;11.85;;;-1.40;99.90;;;;;;5063150;28;20021;-75
2023/03/28 05:43:21;;;;;;;18.30;9.25;;;-1.40;99.90;;;;;;5060524;28;20520;-77
2023/03/28 05:45:47;;;;;;;54.92;23.98;;;-1.40;99.90;;;;;;5062990;28;20021;-76
2023/03/28 05:48:13;;;;;;;53.72;19.80;;;-1.30;99.90;;;;;;5061402;28;20025;-76
2023/03/28 05:50:38;;;;;;;54.45;22.90;;;-1.30;99.90;;;;;;5061651;28;20016;-76
2023/03/28 05:53:04;;;;;;;37.72;17.30;;;-1.00;99.90;;;;;;5072330;28;20081;-76
2023/03/28 05:55:30;;;;;;;47.45;19.77;;;-0.90;99.90;;;;;;5072187;28;20027;-77
2023/03/28 05:57:56;;;;;;;75.07;33.67;;;-0.90;99.90;;;;;;5063586;28;20020;-75
2023/03/28 06:00:23;;;;;;;37.08;18.98;;;-0.90;99.90;;;;;;5072559;28;20017;-75
2023/03/28 06:02:53;;;;;;;90.00;33.90;;;-0.80;99.90;;;;;;5075179;28;20060;-74
2023/03/28 06:05:19;;;;;;;20.58;10.73;;;-0.80;99.90;;;;;;5074406;28;20024;-74
2023/03/28 06:07:46;;;;;;;21.80;12.23;;;-0.70;99.90;;;;;;5062136;28;20028;-74
2023/03/28 06:10:13;;;;;;;52.97;20.40;;;-0.70;99.90;;;;;;5062547;28;20017;-75
2023/03/28 06:12:40;;;;;;;19.13;10.70;;;-0.70;99.90;;;;;;5061603;28;20027;-77
2023/03/28 06:15:07;;;;;;;27.58;12.25;;;-0.50;99.90;;;;;;5072634;28;20440;-74
2023/03/28 06:17:32;;;;;;;89.78;33.20;;;-0.50;99.90;;;;;;5059676;28;20017;-75
2023/03/28 06:19:58;;;;;;;81.05;31.63;;;-0.40;99.90;;;;;;5063269;28;20474;-78
2023/03/28 06:22:24;;;;;;;93.75;38.25;;;-0.30;99.90;;;;;;5060259;28;20052;-75
2023/03/28 06:24:49;;;;;;;99.38;37.22;;;-0.10;99.90;;;;;;5059775;28;20021;-76
2023/03/28 06:27:15;;;;;;;54.78;22.85;;;-0.10;99.90;;;;;;5058053;28;20025;-76
2023/03/28 06:29:41;;;;;;;55.42;19.75;;;0.00;99.90;;;;;;5060937;28;20075;-78
2023/03/28 06:32:06;;;;;;;43.83;18.90;;;0.00;99.90;;;;;;5058042;28;20538;-77
2023/03/28 06:34:32;;;;;;;44.85;19.08;;;-0.20;99.90;;;;;;5054978;28;20596;-78
2023/03/28 06:36:59;;;;;;;77.70;28.27;;;-0.20;99.90;;;;;;5052171;28;20363;-76
2023/03/28 06:39:25;;;;;;;25.17;11.00;;;-0.30;99.90;;;;;;5050020;28;20032;-76
2023/03/28 06:41:50;;;;;;;66.82;29.67;;;-0.30;99.90;;;;;;5050245;28;20029;-78
2023/03/28 06:44:16;;;;;;;61.78;25.63;;;-0.20;99.90;;;;;;5050014;28;20106;-76
2023/03/28 06:46:42;;;;;;;46.25;20.17;;;-0.10;99.90;;;;;;5051717;28;20029;-78
2023/03/28 06:49:07;;;;;;;28.23;14.88;;;-0.10;99.90;;;;;;5047568;28;20418;-78
2023/03/28 06:51:33;;;;;;;54.70;21.73;;;-0.20;99.90;;;;;;5050146;28;20025;-78
2023/03/28 06:53:59;;;;;;;33.63;15.75;;;-0.30;99.90;;;;;;5049683;28;20079;-76
2023/03/28 06:56:24;;;;;;;41.65;18.83;;;-0.20;99.90;;;;;;5048167;28;20082;-78
2023/03/28 06:58:50;;;;;;;41.55;17.23;;;-0.30;99.90;;;;;;5048087;28;20029;-76
2023/03/28 07:01:16;;;;;;;50.42;18.88;;;-0.40;99.90;;;;;;5050564;28;20028;-78
2023/03/28 07:03:42;;;;;;;39.15;19.67;;;-0.40;99.90;;;;;;5051404;28;20068;-77
2023/03/28 07:06:09;;;;;;;66.78;31.05;;;-0.60;99.90;;;;;;5052481;28;20419;-76
2023/03/28 07:08:35;;;;;;;24.45;11.45;;;-0.60;99.90;;;;;;5052432;28;20402;-76
2023/03/28 07:11:01;;;;;;;62.70;26.00;;;-0.60;99.90;;;;;;5053341;28;20033;-77
2023/03/28 07:13:27;;;;;;;45.05;21.08;;;-0.40;99.90;;;;;;5051908;28;20032;-76
2023/03/28 07:16:09;;;;;;;45.15;20.65;;;-0.50;99.90;;;;;;5052031;28;20029;-76
2023/03/28 07:18:35;;;;;;;30.97;13.80;;;-0.30;99.90;;;;;;5052028;28;20028;-78
2023/03/28 07:21:08;;;;;;;33.45;15.55;;;-0.30;99.90;;;;;;5053152;28;20071;-78
2023/03/28 07:23:34;;;;;;;20.60;10.90;;;-0.30;99.90;;;;;;5053264;28;20048;-78
2023/03/28 07:26:00;;;;;;;23.65;15.45;;;-0.40;99.90;;;;;;5053451;28;20074;-78
2023/03/28 07:28:26;;;;;;;14.02;8.15;;;-0.60;99.90;;;;;;5051934;28;20108;-76
2023/03/28 07:30:53;;;;;;;19.73;12.45;;;-1.00;99.90;;;;;;5053196;28;20036;-76
2023/03/28 07:33:19;;;;;;;9.15;6.13;;;-1.10;99.90;;;;;;5051871;28;20152;-77
2023/03/28 07:35:45;;;;;;;26.65;13.75;;;-1.20;99.90;;;;;;5053095;28;20112;-76
2023/03/28 07:38:10;;;;;;;11.90;8.38;;;-1.20;99.90;;;;;;5052908;28;20066;-78
2023/03/28 07:40:36;;;;;;;16.80;11.10;;;-1.10;99.90;;;;;;5051409;28;20116;-76
2023/03/28 07:43:02;;;;;;;16.73;10.15;;;-0.90;99.90;;;;;;5052992;28;20456;-76
2023/03/28 07:45:28;;;;;;;12.15;7.38;;;-0.80;99.90;;;;;;5053153;28;20021;-76
2023/03/28 07:47:53;;;;;;;14.25;9.88;;;-0.80;99.90;;;;;;5052912;28;20025;-78
2023/03/28 07:50:19;;;;;;;15.52;13.90;;;-0.80;99.90;;;;;;5051716;28;20017;-78
2023/03/28 07:52:45;;;;;;;39.90;20.95;;;-0.90;99.90;;;;;;5051697;28;20371;-76
2023/03/28 07:55:12;;;;;;;27.88;12.85;;;-0.80;99.90;;;;;;5053118;28;20025;-78
2023/03/28 07:57:38;;;;;;;49.28;24.50;;;-0.80;99.90;;;;;;5051591;28;20061;-76
2023/03/28 08:00:08;;;;;;;6.82;5.95;;;-0.90;99.90;;;;;;5052847;28;20083;-78
2023/03/28 08:02:33;;;;;;;24.55;14.40;;;-0.80;99.90;;;;;;5051470;28;20037;-78
2023/03/28 08:04:59;;;;;;;26.70;15.27;;;-0.80;99.90;;;;;;5052538;28;20104;-76
2023/03/28 08:07:25;;;;;;;35.50;16.52;;;-0.70;99.90;;;;;;5051553;28;20021;-76
2023/03/28 08:09:52;;;;;;;31.67;15.45;;;-0.40;99.90;;;;;;5052914;28;20024;-78
2023/03/28 08:12:18;;;;;;;54.25;20.80;;;-0.50;99.90;;;;;;5051538;28;20028;-78
2023/03/28 08:14:44;;;;;;;47.90;18.92;;;-0.50;99.90;;;;;;5051526;28;20466;-77
2023/03/28 08:17:09;;;;;;;38.35;17.00;;;-0.50;99.90;;;;;;5052666;28;20071;-77
2023/03/28 08:19:35;;;;;;;47.05;17.42;;;-0.50;99.90;;;;;;5053976;28;20458;-78
2023/03/28 08:22:01;;;;;;;21.05;11.75;;;-0.40;97.70;;;;;;5054731;28;20409;-77
2023/03/28 08:24:27;;;;;;;15.10;8.27;;;-0.40;89.20;;;;;;5056350;28;20028;-78
2023/03/28 08:26:52;;;;;;;16.67;8.98;;;-0.30;85.90;;;;;;5055008;28;20379;-76
2023/03/28 08:29:19;;;;;;;8.63;4.72;;;-0.40;84.50;;;;;;5056233;28;20029;-78
2023/03/28 08:31:46;;;;;;;5.85;4.35;;;-0.50;83.40;;;;;;5055009;28;20037;-76
2023/03/28 08:34:12;;;;;;;3.83;2.78;;;-0.50;83.20;;;;;;5056150;28;20017;-78
2023/03/28 08:36:37;;;;;;;3.45;3.20;;;-0.40;82.70;;;;;;5056213;28;20482;-78
2023/03/28 08:39:04;;;;;;;12.18;6.28;;;-0.30;81.80;;;;;;5054735;28;20071;-78
2023/03/28 08:41:41;;;;;;;4.93;4.03;;;-0.30;81.10;;;;;;5054744;28;20028;-76
2023/03/28 08:44:10;;;;;;;5.13;3.75;;;0.00;79.00;;;;;;5056069;28;20094;-76
2023/03/28 08:46:41;;;;;;;3.25;3.00;;;-0.10;78.80;;;;;;5054611;28;20119;-76
2023/03/28 08:49:12;;;;;;;10.60;6.20;;;0.10;78.70;;;;;;5055873;28;20048;-76
2023/03/28 08:51:40;;;;;;;6.88;4.38;;;0.20;79.10;;;;;;5054469;28;20021;-76
2023/03/28 08:54:11;;;;;;;4.38;3.83;;;0.20;79.20;;;;;;5054432;28;20035;-76
2023/03/28 08:56:54;;;;;;;5.30;4.47;;;0.00;80.60;;;;;;5055863;28;20086;-78
2023/03/28 08:59:46;;;;;;;5.00;3.30;;;0.10;82.10;;;;;;5054556;28;20075;-77
2023/03/28 09:02:18;;;;;;;9.13;5.05;;;0.20;79.30;;;;;;5046233;28;20087;-76
2023/03/28 09:04:44;;;;;;;5.38;3.80;;;0.30;77.80;;;;;;5055720;28;20055;-76
2023/03/28 09:07:25;;;;;;;4.90;3.60;;;0.20;72.50;;;;;;5054096;28;20037;-76
2023/03/28 09:10:09;;;;;;;5.45;3.13;;;0.20;71.10;;;;;;5055654;28;20017;-78
2023/03/28 09:12:45;;;;;;;3.15;2.95;;;0.20;69.20;;;;;;5055491;28;20029;-76
2023/03/28 09:15:35;;;;;;;3.50;3.20;;;0.00;67.70;;;;;;5054059;28;20031;-77
2023/03/28 09:18:06;;;;;;;4.20;3.80;;;0.20;68.00;;;;;;5055442;28;20025;-77
2023/03/28 09:20:39;;;;;;;5.32;4.78;;;0.10;67.00;;;;;;5053964;28;20029;-78
2023/03/28 09:23:13;;;;;;;;;;;0.30;67.30;;;;;;5054173;28;20123;-77
2023/03/28 09:25:47;;;;;;;3.70;3.38;;;0.30;68.40;;;;;;5053973;28;20003;-78
2023/03/28 09:28:31;;;;;;;6.43;4.38;;;0.00;66.60;;;;;;5053874;28;20021;-77
2023/03/28 09:30:58;;;;;;;9.63;4.82;;;0.10;66.90;;;;;;5053892;28;20460;-77
2023/03/28 09:33:32;;;;;;;5.38;4.18;;;0.30;67.00;;;;;;5053711;28;20067;-77
2023/03/28 09:35:58;;;;;;;9.00;5.20;;;0.30;66.30;;;;;;5054924;28;20021;-76
2023/03/28 09:38:37;;;;;;;5.95;3.85;;;0.60;64.70;;;;;;5054961;28;20052;-76
2023/03/28 09:41:10;;;;;;;3.22;2.80;;;0.80;63.30;;;;;;5055387;28;20023;-76
2023/03/28 09:43:55;;;;;;;3.45;3.08;;;1.20;62.60;;;;;;5054786;28;20036;-76
2023/03/28 09:46:35;;;;;;;3.30;3.00;;;1.10;61.50;;;;;;5054845;28;20013;-78
2023/03/28 09:49:01;;;;;;;4.13;2.75;;;1.00;60.00;;;;;;5054779;28;20466;-77
2023/03/28 09:51:27;;;;;;;3.03;2.47;;;1.20;61.20;;;;;;5053498;28;20028;-76
2023/03/28 09:53:53;;;;;;;4.15;2.72;;;0.90;59.60;;;;;;5053305;28;20379;-78
2023/03/28 09:56:29;;;;;;;5.50;4.82;;;0.70;60.00;;;;;;5053392;28;20087;-78
2023/03/28 09:59:04;;;;;;;8.75;5.85;;;0.70;61.60;;;;;;5054652;28;20397;-77
2023/03/28 10:01:45;;;;;;;3.05;2.72;;;0.80;61.20;;;;;;5053205;28;20024;-76
2023/03/28 10:04:14;;;;;;;3.25;2.40;;;1.10;59.50;;;;;;5054728;28;20487;-78
2023/03/28 10:06:41;;;;;;;2.90;2.70;;;1.00;58.70;;;;;;5053170;28;20035;-78
2023/03/28 10:09:15;;;;;;;2.65;2.40;;;0.70;59.10;;;;;;5054382;28;20029;-78
2023/03/28 10:12:03;;;;;;;9.60;6.47;;;0.40;61.10;;;;;;5052905;28;20028;-76
2023/03/28 10:14:45;;;;;;;4.00;3.70;;;0.30;63.40;;;;;;5052951;28;20024;-78
2023/03/28 10:17:34;;;;;;;27.20;10.90;;;0.30;65.30;;;;;;5054300;28;20052;-76
2023/03/28 10:20:05;;;;;;;8.23;5.28;;;0.40;66.30;;;;;;5052922;28;20112;-77
2023/03/28 10:22:33;;;;;;;33.88;15.98;;;0.50;65.10;;;;;;5053820;28;20502;-77
2023/03/28 10:25:02;;;;;;;4.18;3.35;;;0.90;65.80;;;;;;5053929;28;20024;-76
2023/03/28 10:27:31;;;;;;;8.25;4.90;;;0.90;62.00;;;;;;5053833;28;20017;-77
2023/03/28 10:30:07;;;;;;;2.60;2.45;;;1.20;61.60;;;;;;5054144;28;20372;-77
2023/03/28 10:32:33;;;;;;;12.52;6.53;;;1.10;58.90;;;;;;5052794;28;20032;-77
2023/03/28 10:35:15;;;;;;;26.17;9.43;;;1.00;58.20;;;;;;5053661;28;20072;-77
2023/03/28 10:37:41;;;;;;;12.68;4.90;;;1.20;58.50;;;;;;5052756;28;20405;-76
2023/03/28 10:40:19;;;;;;;29.50;11.93;;;1.10;56.90;;;;;;5053674;28;20032;-76
2023/03/28 10:42:48;;;;;;;11.40;6.25;;;1.10;57.30;;;;;;5053334;28;20040;-79
2023/03/28 10:45:22;;;;;;;6.20;4.30;;;1.00;56.50;;;;;;5053676;28;20025;-78
2023/03/28 10:47:50;;;;;;;26.58;11.70;;;1.30;58.00;;;;;;5052370;28;20536;-78
2023/03/28 10:50:27;;;;;;;20.30;8.30;;;1.30;56.30;;;;;;5052322;28;20058;-77
2023/03/28 10:52:59;;;;;;;44.65;19.23;;;1.20;55.90;;;;;;5053661;28;20474;-78
2023/03/28 10:55:30;;;;;;;23.83;9.63;;;1.10;55.60;;;;;;5053648;28;20035;-77
2023/03/28 10:58:24;;;;;;;16.63;9.13;;;1.10;55.80;;;;;;5052324;28;20025;-78
2023/03/28 11:01:06;;;;;;;18.15;8.32;;;1.10;55.80;;;;;;5052177;28;20032;-76
2023/03/28 11:03:56;;;;;;;3.43;3.07;;;1.30;55.10;;;;;;5053528;28;20075;-78
2023/03/28 11:06:48;;;;;;;15.30;7.00;;;1.30;52.00;;;;;;5053509;28;20035;-76
2023/03/28 11:09:45;;;;;;;3.28;2.85;;;1.80;52.80;;;;;;5029469;28;20025;-76
2023/03/28 11:12:34;;;;;;;6.07;4.97;;;2.00;50.80;;;;;;5052146;28;20025;-77
2023/03/28 11:15:15;;;;;;;6.82;5.03;;;2.10;51.20;;;;;;5052120;28;20029;-77
2023/03/28 11:18:11;;;;;;;134.77;52.72;;;1.80;51.10;;;;;;5053306;28;20110;-76
2023/03/28 11:20:43;;;;;;;129.18;56.17;;;1.60;52.40;;;;;;5051955;28;20036;-78
2023/03/28 11:23:27;;;;;;;73.38;31.42;;;1.50;51.60;;;;;;5053033;28;20064;-77
2023/03/28 11:26:02;;;;;;;160.10;65.80;;;1.50;51.00;;;;;;5053307;28;20021;-76
2023/03/28 11:28:58;;;;;;;118.53;47.78;;;1.60;50.70;;;;;;5053253;28;20017;-77
2023/03/28 11:31:34;;;;;;;181.40;67.40;;;1.80;51.00;;;;;;5051763;28;20057;-77
2023/03/28 11:34:21;;;;;;;199.95;75.22;;;1.80;51.90;;;;;;5051912;28;20111;-78
2023/03/28 11:36:57;;;;;;;236.02;82.45;;;1.80;50.60;;;;;;5051788;28;20041;-78
2023/03/28 11:39:50;;;;;;;452.85;175.70;;;1.70;51.00;;;;;;5060135;28;20020;-79
2023/03/28 11:42:30;;;;;;;58.42;24.30;;;2.00;52.70;;;;;;5071628;28;20045;-78
2023/03/28 11:45:19;;;;;;;207.80;75.03;;;2.30;52.10;;;;;;5073145;28;20055;-78
2023/03/28 11:47:52;;;;;;;21.77;9.77;;;2.30;50.90;;;;;;5072898;28;20552;-77
2023/03/28 11:50:30;;;;;;;156.60;64.07;;;2.30;49.10;;;;;;5072955;28;20024;-78
2023/03/28 11:53:17;;;;;;;72.50;28.58;;;2.30;49.40;;;;;;5072988;28;20024;-78
2023/03/28 11:55:51;;;;;;;136.57;53.60;;;2.10;50.50;;;;;;5076003;28;20029;-78
2023/03/28 11:58:23;;;;;;;68.22;28.98;;;2.30;51.20;;;;;;5075536;28;20021;-78
2023/03/28 12:01:12;;;;;;;59.13;22.90;;;2.10;51.30;;;;;;5075479;28;20028;-78
2023/03/28 12:04:03;;;;;;;22.83;10.60;;;1.90;52.00;;;;;;5075110;28;20548;-78
2023/03/28 12:06:46;;;;;;;56.97;23.42;;;2.00;55.70;;;;;;5071031;28;20047;-76
2023/03/28 12:09:18;;;;;;;13.50;8.38;;;1.80;57.20;;;;;;5075470;28;20100;-77
2023/03/28 12:12:20;;;;;;;106.78;39.08;;;1.60;57.60;;;;;;5075328;28;20029;-77
2023/03/28 12:15:05;;;;;;;73.25;27.67;;;1.20;57.80;;;;;;5076701;28;20027;-76
2023/03/28 12:17:38;;;;;;;60.30;21.80;;;1.20;59.40;;;;;;5075166;28;20119;-76
2023/03/28 12:20:11;;;;;;;58.80;27.23;;;0.00;76.40;;;;;;5075166;28;20023;-78
2023/03/28 12:22:41;;;;;;;56.33;23.05;;;-0.30;96.60;;;;;;5076231;28;20087;-77
2023/03/28 12:25:32;;;;;;;23.40;9.93;;;-0.70;99.90;;;;;;5075121;28;20031;-78
2023/03/28 12:28:11;;;;;;;17.50;9.85;;;-0.80;99.90;;;;;;5075767;28;20040;-76
2023/03/28 12:30:57;;;;;;;13.68;8.32;;;-0.70;99.90;;;;;;5076089;28;20025;-78
2023/03/28 12:33:42;;;;;;;9.52;6.25;;;-0.40;99.90;;;;;;5057928;28;20032;-78
2023/03/28 12:36:24;;;;;;;8.80;5.10;;;-0.10;99.90;;;;;;5055862;28;20025;-78
2023/03/28 12:38:58;;;;;;;10.27;5.97;;;0.10;99.90;;;;;;5056213;28;20047;-77
2023/03/28 12:41:31;;;;;;;38.45;18.75;;;0.30;99.90;;;;;;5055513;28;20104;-76
2023/03/28 12:44:01;;;;;;;110.43;48.53;;;0.40;99.90;;;;;;5056035;28;20131;-76
2023/03/28 12:46:36;;;;;;;25.98;13.60;;;0.80;99.90;;;;;;5054782;28;20526;-77
2023/03/28 12:49:16;;;;;;;18.08;8.23;;;1.20;99.90;;;;;;5054564;28;20067;-76
2023/03/28 12:51:46;;;;;;;32.38;12.57;;;1.60;99.90;;;;;;5055985;28;20025;-76
2023/03/28 12:54:15;;;;;;;31.77;11.05;;;1.60;92.60;;;;;;5055920;28;20040;-76
2023/03/28 12:57:05;;;;;;;41.42;16.10;;;1.50;83.20;;;;;;5055382;28;20360;-77
2023/03/28 12:59:38;;;;;;;25.98;11.43;;;1.30;80.70;;;;;;5048647;28;20116;-77